Pagrindinis puslapis
METAR-TAF:

METAR-TAF

Oro uostai :

Figari, Prancūzija

platuma: 41-30N, ilguma: 009-06E, Aukštis: 26 m

Dabartinis oras

Ataskaita buvo paskelbta 29 minutes, ne 21:30 UTC
Vėjas 3 kt iš Rytų/Šiaurės Rytų
Temperatūra 5°C
Drėgmė 87%
Slėgis 1022 hPa
Matomumas 10 km arba daugiau
nėra debesų žemiau 1500 m ir nėra kamuolinių lietaus debesų

METAR: LFKF 092130Z AUTO 06003KT CAVOK 05/03 Q1022

Laikas: 23:59 (21:59 UTC)

Prognozė

Ataskaita buvo paskelbta 13 valandos ir 59 minutes, ne 08:00 UTC
Prognozė galioja nuo 09 metu 09 UTC su 10 metu 09 UTC
Vėjas 2 kt nuo kintamojo kryptimis
Matomumas 10 km arba daugiau
nėra debesų žemiau 1500 m ir nėra kamuolinių lietaus debesų
Tikimybė 30% :
Laikinai
nuo 09 metu 10 UTC su 09 metu 15 UTC
Vėjas 12 kt nuo kintamojo kryptimis
Išsisklaidę debesys ne aukštis 6000 ft, aukštai iškilę kamuoliniai debesys.
lietus

TAF: LFKF 090800Z 0909/1009 VRB02KT CAVOK PROB30 TEMPO 0910/0915 VRB12KT SHRA SCT060TCU

Orai ataskaitas ir orų prognozės (METAR, TAF).

turimą stotys yra geltonos ir raudonos taškus žemėlapyje.

Perkelti pele per norėdami pamatyti stoties vardą.

Tada spustelėkite, norėdami matyti oro stebėjimo ir prognozės.

Norėdami pakeisti žemėlapį: spustelėkite ant žalios mygtukų su juodo kryžiaus žemyn,; žalią mygtuką su brūkšneliu, jei norite nutolinti; arba žalių rodyklių gretimoms žemėlapius.


METAR-TAF: